Terminal Aerodrome Forecast
Issued by NWS Wilmington, OH

Current Version | Previous Version | Graphics & Text | Print | Product List | Glossary On
Versions: 1 2 3 4 5 6 7 8 9 10 11 12 13 14 15 16 17 18 19 20 21 22 23 24
184
FTUS41 KILN 302217 AAA
TAFCMH
TAF AMD
KCMH 302217Z 3022/0118 13010KT 5SM SHRA BR OVC012
     FM010100 14010KT 4SM BR VCSH OVC008
     FM010400 18010KT 4SM BR VCSH OVC015
      TEMPO 0104/0108 2SM SHRA BR OVC008
     FM010800 19006KT 4SM BR OVC007
     FM011400 23006KT P6SM BKN015=

USA.gov is the U.S. government's official web portal to all federal, state and local government web resources and services.